createdAt,value
2022-08-11T00:00:45.170Z,21.06
2022-08-11T00:01:45.162Z,21.13
2022-08-11T00:02:45.272Z,21.27
2022-08-11T00:03:45.150Z,21.19
2022-08-11T00:04:45.151Z,21.18
2022-08-11T00:05:45.140Z,21.19
2022-08-11T00:06:45.134Z,21.19
2022-08-11T00:07:45.129Z,21.21
2022-08-11T00:08:45.133Z,21.34
2022-08-11T00:09:45.119Z,21.27
2022-08-11T00:10:45.114Z,21.30
2022-08-11T00:11:45.110Z,21.24
2022-08-11T00:12:45.114Z,21.18
2022-08-11T00:13:45.098Z,21.15
2022-08-11T00:14:45.092Z,21.06
2022-08-11T00:15:45.083Z,21.24
2022-08-11T00:16:45.082Z,21.24
2022-08-11T00:17:45.074Z,21.27
2022-08-11T00:18:45.069Z,21.30
2022-08-11T00:20:11.514Z,21.26
2022-08-11T00:20:45.059Z,21.26
2022-08-11T00:22:04.268Z,21.16
2022-08-11T00:22:45.043Z,21.15
2022-08-11T00:23:45.038Z,21.16
2022-08-11T00:24:51.655Z,21.18
2022-08-11T00:25:45.027Z,21.16
2022-08-11T00:26:45.028Z,21.30
2022-08-11T00:27:45.013Z,21.24
2022-08-11T00:28:45.013Z,21.26
2022-08-11T00:29:51.674Z,21.28
2022-08-11T00:30:44.999Z,21.24
2022-08-11T00:31:44.992Z,21.19
2022-08-11T00:32:44.985Z,21.19
2022-08-11T00:33:45.438Z,21.33
2022-08-11T00:34:44.976Z,21.27
2022-08-11T00:35:51.414Z,21.27
2022-08-11T00:36:44.963Z,21.30
2022-08-11T00:37:44.957Z,21.31
2022-08-11T00:38:44.951Z,21.30
2022-08-11T00:39:45.037Z,21.30
2022-08-11T00:40:44.947Z,21.31
2022-08-11T00:41:44.935Z,21.30
2022-08-11T00:42:44.931Z,21.27
2022-08-11T00:43:44.921Z,21.26
2022-08-11T00:44:44.919Z,21.34
2022-08-11T00:45:44.910Z,21.38
2022-08-11T00:46:44.905Z,21.24
2022-08-11T00:47:44.897Z,21.26
2022-08-11T00:48:44.892Z,21.27
2022-08-11T00:49:44.887Z,21.19
2022-08-11T00:50:44.880Z,21.09
2022-08-11T00:52:05.836Z,21.27
2022-08-11T00:52:44.874Z,21.22
2022-08-11T00:53:44.863Z,21.16
2022-08-11T00:54:44.857Z,21.12
2022-08-11T00:55:47.074Z,21.16
2022-08-11T00:56:44.847Z,21.16
2022-08-11T00:57:44.837Z,21.13
2022-08-11T00:58:44.836Z,21.06
2022-08-11T00:59:44.826Z,21.05
2022-08-11T01:00:44.911Z,21.01
2022-08-11T01:01:44.815Z,20.94
2022-08-11T01:02:44.810Z,21.00
2022-08-11T01:03:44.801Z,20.97
2022-08-11T01:04:44.799Z,20.91
2022-08-11T01:05:44.791Z,20.93
2022-08-11T01:06:44.786Z,20.88
2022-08-11T01:08:02.916Z,20.94
2022-08-11T01:08:44.873Z,20.90
2022-08-11T01:09:44.775Z,20.83
2022-08-11T01:10:44.771Z,20.87
2022-08-11T01:11:55.130Z,20.85
2022-08-11T01:12:44.751Z,20.88
2022-08-11T01:13:44.742Z,20.87
2022-08-11T01:14:44.739Z,20.91
2022-08-11T01:15:55.839Z,20.85
2022-08-11T01:16:44.726Z,20.87
2022-08-11T01:17:44.730Z,20.87
2022-08-11T01:18:44.719Z,20.85
2022-08-11T01:20:46.085Z,20.87
2022-08-11T01:20:48.969Z,20.93
2022-08-11T01:21:44.696Z,20.85
2022-08-11T01:22:44.685Z,20.83
2022-08-11T01:23:44.680Z,20.71
2022-08-11T01:24:44.674Z,20.76
2022-08-11T01:25:57.449Z,20.83
2022-08-11T01:26:44.661Z,20.76
2022-08-11T01:27:44.657Z,20.75
2022-08-11T01:28:44.650Z,20.76
2022-08-11T01:29:49.233Z,20.72
2022-08-11T01:30:44.637Z,20.73
2022-08-11T01:31:44.633Z,20.66
2022-08-11T01:32:44.625Z,20.73
2022-08-11T01:33:44.621Z,20.75
2022-08-11T01:34:44.712Z,20.72
2022-08-11T01:35:44.607Z,20.85
2022-08-11T01:36:44.603Z,20.82
2022-08-11T01:37:44.597Z,20.85
2022-08-11T01:38:44.590Z,20.90
2022-08-11T01:39:44.618Z,20.81
2022-08-11T01:40:44.576Z,20.73
2022-08-11T01:41:44.574Z,20.63
2022-08-11T01:42:44.562Z,20.72
2022-08-11T01:43:44.559Z,20.66
2022-08-11T01:44:44.550Z,20.71
2022-08-11T01:45:44.548Z,20.73
2022-08-11T01:46:44.538Z,20.68
2022-08-11T01:47:53.336Z,20.76
2022-08-11T01:48:44.526Z,20.72
2022-08-11T01:50:08.040Z,20.75
2022-08-11T01:50:44.513Z,20.73
2022-08-11T01:51:45.340Z,20.68
2022-08-11T01:52:44.944Z,20.64
2022-08-11T01:53:44.497Z,20.64
2022-08-11T01:54:44.489Z,20.76
2022-08-11T01:55:44.486Z,20.75
2022-08-11T01:56:44.477Z,20.72
2022-08-11T01:57:44.474Z,20.60
2022-08-11T01:58:44.567Z,20.57
2022-08-11T01:59:44.460Z,20.64
2022-08-11T02:00:44.488Z,20.51
2022-08-11T02:01:44.451Z,20.50
2022-08-11T02:02:44.440Z,20.46
2022-08-11T02:03:44.435Z,20.51
2022-08-11T02:04:44.429Z,20.48
2022-08-11T02:05:44.423Z,20.50
2022-08-11T02:06:44.414Z,20.57
2022-08-11T02:07:44.412Z,20.50
2022-08-11T02:08:49.559Z,20.54
2022-08-11T02:09:49.683Z,20.58
2022-08-11T02:10:50.694Z,20.57
2022-08-11T02:11:44.386Z,20.58
2022-08-11T02:12:52.524Z,20.56
2022-08-11T02:13:44.716Z,20.51
2022-08-11T02:15:04.499Z,20.54
2022-08-11T02:15:44.360Z,20.53
2022-08-11T02:16:44.352Z,20.53
2022-08-11T02:17:44.346Z,20.44
2022-08-11T02:18:44.339Z,20.48
2022-08-11T02:19:45.384Z,20.41
2022-08-11T02:20:44.331Z,20.35
2022-08-11T02:21:44.322Z,20.34
2022-08-11T02:22:44.312Z,20.40
2022-08-11T02:24:04.161Z,20.33
2022-08-11T02:24:44.299Z,20.22
2022-08-11T02:25:44.296Z,20.16
2022-08-11T02:26:44.286Z,20.12
2022-08-11T02:27:44.282Z,20.13
2022-08-11T02:28:46.408Z,20.16
2022-08-11T02:29:44.272Z,20.15
2022-08-11T02:30:44.260Z,20.04
2022-08-11T02:32:24.003Z,20.01
2022-08-11T02:32:44.247Z,20.04
2022-08-11T02:33:44.244Z,20.08
2022-08-11T02:34:44.233Z,19.90
2022-08-11T02:35:44.228Z,19.95
2022-08-11T02:36:44.221Z,19.97
2022-08-11T02:37:44.218Z,19.92
2022-08-11T02:38:44.206Z,20.07
2022-08-11T02:39:44.319Z,20.15
2022-08-11T02:40:44.194Z,20.15
2022-08-11T02:41:44.190Z,20.08
2022-08-11T02:42:44.455Z,20.15
2022-08-11T02:43:46.150Z,20.10
2022-08-11T02:44:44.168Z,20.10
2022-08-11T02:45:44.163Z,20.13
2022-08-11T02:46:44.153Z,20.12
2022-08-11T02:47:44.150Z,20.10
2022-08-11T02:48:44.141Z,20.17
2022-08-11T02:49:44.139Z,20.16
2022-08-11T02:50:44.127Z,20.17
2022-08-11T02:51:44.124Z,20.16
2022-08-11T02:52:44.116Z,20.13
2022-08-11T02:53:44.110Z,20.08
2022-08-11T02:54:44.103Z,20.12
2022-08-11T02:55:48.077Z,20.08
2022-08-11T02:57:17.299Z,20.05
2022-08-11T02:57:44.080Z,20.02
2022-08-11T02:58:44.075Z,20.04
2022-08-11T02:59:44.068Z,19.97
2022-08-11T03:00:44.063Z,20.02
2022-08-11T03:01:44.129Z,20.00
2022-08-11T03:02:44.050Z,19.87
2022-08-11T03:03:44.040Z,19.92
2022-08-11T03:04:44.034Z,19.90
2022-08-11T03:05:44.027Z,19.89
2022-08-11T03:06:44.022Z,19.94
2022-08-11T03:07:44.013Z,19.87
2022-08-11T03:08:44.022Z,19.95
2022-08-11T03:09:44.000Z,19.89
2022-08-11T03:10:43.994Z,19.72
2022-08-11T03:11:43.985Z,19.83
2022-08-11T03:12:43.983Z,19.82
2022-08-11T03:13:43.972Z,19.72
2022-08-11T03:14:43.973Z,19.80
2022-08-11T03:15:44.638Z,19.82
2022-08-11T03:16:43.953Z,19.76
2022-08-11T03:17:43.947Z,19.78
2022-08-11T03:18:43.937Z,19.83
2022-08-11T03:19:43.928Z,19.78
2022-08-11T03:20:43.926Z,19.75
2022-08-11T03:22:01.776Z,19.83
2022-08-11T03:22:43.911Z,19.87
2022-08-11T03:23:43.901Z,19.87
2022-08-11T03:24:43.897Z,19.83
2022-08-11T03:25:43.887Z,19.85
2022-08-11T03:26:43.880Z,19.87
2022-08-11T03:27:43.874Z,19.82
2022-08-11T03:28:43.868Z,19.79
2022-08-11T03:29:43.864Z,19.78
2022-08-11T03:30:43.853Z,19.79
2022-08-11T03:31:44.648Z,19.71
2022-08-11T03:32:43.840Z,19.76
2022-08-11T03:33:43.832Z,19.79
2022-08-11T03:34:43.827Z,19.78
2022-08-11T03:35:43.817Z,19.76
2022-08-11T03:37:15.433Z,19.68
2022-08-11T03:37:43.803Z,19.70
2022-08-11T03:38:43.799Z,19.61
2022-08-11T03:39:56.054Z,19.50
2022-08-11T03:40:43.788Z,19.57
2022-08-11T03:42:01.155Z,19.62
2022-08-11T03:42:43.772Z,19.61
2022-08-11T03:43:50.150Z,19.61
2022-08-11T03:44:43.755Z,19.62
2022-08-11T03:45:43.748Z,19.71
2022-08-11T03:46:43.741Z,19.72
2022-08-11T03:47:52.625Z,19.72
2022-08-11T03:48:43.729Z,19.62
2022-08-11T03:49:43.735Z,19.62
2022-08-11T03:50:43.712Z,19.64
2022-08-11T03:51:51.669Z,19.53
2022-08-11T03:52:43.701Z,19.61
2022-08-11T03:53:43.692Z,19.60
2022-08-11T03:54:43.686Z,19.62
2022-08-11T03:55:43.677Z,19.50
2022-08-11T03:56:43.671Z,19.67
2022-08-11T03:57:43.663Z,19.52
2022-08-11T03:58:43.861Z,19.57
2022-08-11T03:59:43.649Z,19.53
2022-08-11T04:00:43.645Z,19.53
2022-08-11T04:01:43.677Z,19.52
2022-08-11T04:02:43.629Z,19.52
2022-08-11T04:03:43.619Z,19.49
2022-08-11T04:04:47.545Z,19.52
2022-08-11T04:05:43.607Z,19.50
2022-08-11T04:06:43.599Z,19.50
2022-08-11T04:07:43.591Z,19.64
2022-08-11T04:08:43.586Z,19.65
2022-08-11T04:09:43.577Z,19.60
2022-08-11T04:10:43.570Z,19.65
2022-08-11T04:11:43.561Z,19.68
2022-08-11T04:12:47.637Z,19.72
2022-08-11T04:13:43.549Z,19.76
2022-08-11T04:14:43.544Z,19.79
2022-08-11T04:15:43.533Z,19.72
2022-08-11T04:16:43.528Z,19.70
2022-08-11T04:17:43.520Z,19.75
2022-08-11T04:18:43.514Z,19.72
2022-08-11T04:19:43.522Z,19.72
2022-08-11T04:20:43.510Z,19.64
2022-08-11T04:21:43.493Z,19.67
2022-08-11T04:22:43.487Z,19.62
2022-08-11T04:24:36.903Z,19.75
2022-08-11T04:24:48.386Z,19.64
2022-08-11T04:25:55.862Z,19.61
2022-08-11T04:26:43.456Z,19.61
2022-08-11T04:27:43.450Z,19.60
2022-08-11T04:28:49.776Z,19.67
2022-08-11T04:30:01.907Z,19.75
2022-08-11T04:30:43.428Z,19.64
2022-08-11T04:31:44.347Z,19.70
2022-08-11T04:32:43.415Z,19.61
2022-08-11T04:33:43.408Z,19.72
2022-08-11T04:34:43.399Z,19.68
2022-08-11T04:35:47.360Z,19.79
2022-08-11T04:36:43.386Z,19.71
2022-08-11T04:37:43.377Z,19.70
2022-08-11T04:38:43.371Z,19.72
2022-08-11T04:39:43.442Z,19.72
2022-08-11T04:40:43.356Z,19.72
2022-08-11T04:41:43.348Z,19.79
2022-08-11T04:42:43.345Z,19.82
2022-08-11T04:44:02.864Z,19.85
2022-08-11T04:44:43.330Z,19.86
2022-08-11T04:45:43.320Z,19.92
2022-08-11T04:46:43.314Z,19.92
2022-08-11T04:48:03.481Z,19.85
2022-08-11T04:48:43.302Z,19.92
2022-08-11T04:49:43.292Z,19.90
2022-08-11T04:50:43.288Z,20.00
2022-08-11T04:51:43.276Z,20.25
2022-08-11T04:52:43.549Z,20.83
2022-08-11T04:53:43.263Z,21.18
2022-08-11T04:54:43.257Z,21.53
2022-08-11T04:55:43.249Z,21.90
2022-08-11T04:56:43.243Z,22.05
2022-08-11T04:57:43.237Z,22.45
2022-08-11T04:58:43.231Z,22.59
2022-08-11T04:59:43.224Z,22.86
2022-08-11T05:00:43.220Z,23.01
2022-08-11T05:01:43.347Z,23.18
2022-08-11T05:02:43.210Z,23.49
2022-08-11T05:03:43.203Z,23.78
2022-08-11T05:04:43.199Z,23.89
2022-08-11T05:05:56.357Z,24.15
2022-08-11T05:06:43.192Z,24.33
2022-08-11T05:07:43.249Z,24.44
2022-08-11T05:08:43.184Z,24.56
2022-08-11T05:09:43.179Z,24.70
2022-08-11T05:10:43.489Z,24.55
2022-08-11T05:11:43.169Z,24.74
2022-08-11T05:12:43.168Z,24.79
2022-08-11T05:13:43.162Z,24.98
2022-08-11T05:14:43.160Z,24.98
2022-08-11T05:15:45.387Z,25.08
2022-08-11T05:16:43.154Z,25.01
2022-08-11T05:17:43.147Z,25.04
2022-08-11T05:18:43.148Z,25.04
2022-08-11T05:19:43.140Z,24.99
2022-08-11T05:20:43.139Z,24.90
2022-08-11T05:21:44.437Z,24.86
2022-08-11T05:22:43.129Z,24.75
2022-08-11T05:23:43.124Z,24.75
2022-08-11T05:24:43.123Z,24.42
2022-08-11T05:26:45.381Z,24.18
2022-08-11T05:26:48.930Z,24.06
2022-08-11T05:27:43.109Z,24.00
2022-08-11T05:28:43.106Z,23.99
2022-08-11T05:29:43.101Z,23.96
2022-08-11T05:30:43.097Z,23.89
2022-08-11T05:31:43.091Z,23.94
2022-08-11T05:32:43.095Z,23.93
2022-08-11T05:33:43.087Z,23.96
2022-08-11T05:34:43.080Z,23.99
2022-08-11T05:36:01.567Z,23.92
2022-08-11T05:36:43.070Z,23.87
2022-08-11T05:37:43.070Z,23.75
2022-08-11T05:38:43.062Z,23.69
2022-08-11T05:39:43.122Z,23.74
2022-08-11T05:40:43.053Z,23.59
2022-08-11T05:41:43.051Z,23.56
2022-08-11T05:42:43.391Z,23.50
2022-08-11T05:44:20.532Z,23.50
2022-08-11T05:44:43.037Z,23.50
2022-08-11T05:45:57.410Z,23.44
2022-08-11T05:46:43.029Z,23.26
2022-08-11T05:47:43.027Z,23.16
2022-08-11T05:48:43.021Z,23.07
2022-08-11T05:49:43.018Z,22.97
2022-08-11T05:50:43.012Z,22.85
2022-08-11T05:51:54.611Z,22.67
2022-08-11T05:52:43.264Z,22.59
2022-08-11T05:53:45.712Z,22.49
2022-08-11T05:54:42.994Z,22.51
2022-08-11T05:56:01.886Z,22.48
2022-08-11T05:56:42.984Z,22.44
2022-08-11T05:57:50.931Z,22.45
2022-08-11T05:58:43.270Z,22.39
2022-08-11T05:59:42.975Z,22.35
2022-08-11T06:00:42.968Z,22.36
2022-08-11T06:01:43.023Z,22.31
2022-08-11T06:02:42.958Z,22.30
2022-08-11T06:03:42.958Z,22.17
2022-08-11T06:04:42.950Z,22.23
2022-08-11T06:05:43.845Z,22.24
2022-08-11T06:06:45.537Z,22.19
2022-08-11T06:07:49.012Z,22.11
2022-08-11T06:08:42.933Z,22.05
2022-08-11T06:09:42.931Z,22.06
2022-08-11T06:10:42.923Z,22.06
2022-08-11T06:11:44.808Z,22.02
2022-08-11T06:12:42.914Z,21.90
2022-08-11T06:13:42.911Z,21.99
2022-08-11T06:14:42.915Z,21.94
2022-08-11T06:15:42.901Z,22.09
2022-08-11T06:16:42.894Z,22.08
2022-08-11T06:17:42.892Z,22.06
2022-08-11T06:18:42.885Z,22.06
2022-08-11T06:19:42.883Z,22.01
2022-08-11T06:20:42.876Z,22.05
2022-08-11T06:21:42.873Z,22.12
2022-08-11T06:22:42.871Z,22.05
2022-08-11T06:23:42.863Z,22.14
2022-08-11T06:24:42.857Z,22.05
2022-08-11T06:25:42.854Z,22.06
2022-08-11T06:27:01.637Z,22.12
2022-08-11T06:27:42.844Z,22.08
2022-08-11T06:28:42.938Z,22.11
2022-08-11T06:29:50.159Z,22.12
2022-08-11T06:30:42.876Z,22.20
2022-08-11T06:31:42.825Z,22.24
2022-08-11T06:32:42.818Z,22.20
2022-08-11T06:33:42.818Z,22.19
2022-08-11T06:34:42.809Z,22.15
2022-08-11T06:35:42.807Z,22.19
2022-08-11T06:36:42.800Z,22.29
2022-08-11T06:37:42.795Z,22.42
2022-08-11T06:38:42.789Z,22.42
2022-08-11T06:39:42.853Z,22.45
2022-08-11T06:40:42.781Z,22.35
2022-08-11T06:41:42.777Z,22.38
2022-08-11T06:42:42.771Z,22.35
2022-08-11T06:43:42.766Z,22.44
2022-08-11T06:44:42.762Z,22.38
2022-08-11T06:45:42.760Z,22.39
2022-08-11T06:46:42.754Z,22.30
2022-08-11T06:47:42.748Z,22.35
2022-08-11T06:48:42.742Z,22.45
2022-08-11T06:49:42.739Z,22.42
2022-08-11T06:50:42.730Z,22.39
2022-08-11T06:51:42.729Z,22.42
2022-08-11T06:52:42.792Z,22.48
2022-08-11T06:53:42.769Z,22.51
2022-08-11T06:54:42.712Z,22.52
2022-08-11T06:55:57.479Z,22.51
2022-08-11T06:56:42.705Z,22.49
2022-08-11T06:57:42.700Z,22.48
2022-08-11T06:58:42.692Z,22.48
2022-08-11T06:59:42.690Z,22.57
2022-08-11T07:00:42.683Z,22.56
2022-08-11T07:01:42.730Z,22.60
2022-08-11T07:02:42.938Z,22.64
2022-08-11T07:03:42.675Z,22.64
2022-08-11T07:04:42.665Z,22.74
2022-08-11T07:05:42.665Z,22.72
2022-08-11T07:06:50.479Z,22.72
2022-08-11T07:07:42.652Z,22.67
2022-08-11T07:08:42.646Z,22.70
2022-08-11T07:09:42.642Z,22.67
2022-08-11T07:10:42.636Z,22.67
2022-08-11T07:11:42.647Z,22.67
2022-08-11T07:12:42.629Z,22.67
2022-08-11T07:13:44.809Z,22.70
2022-08-11T07:14:42.618Z,22.69
2022-08-11T07:16:12.769Z,22.63
2022-08-11T07:16:42.610Z,22.57
2022-08-11T07:17:42.609Z,22.63
2022-08-11T07:18:42.600Z,22.57
2022-08-11T07:19:42.598Z,22.66
2022-08-11T07:20:42.591Z,22.66
2022-08-11T07:22:00.262Z,22.76
2022-08-11T07:22:42.583Z,22.78
2022-08-11T07:23:43.315Z,22.94
2022-08-11T07:25:01.989Z,22.96
2022-08-11T07:25:43.477Z,22.89
2022-08-11T07:26:42.565Z,22.93
2022-08-11T07:27:42.562Z,22.96
2022-08-11T07:28:42.555Z,22.91
2022-08-11T07:29:42.555Z,22.93
2022-08-11T07:30:42.546Z,22.97
2022-08-11T07:31:42.550Z,23.00
2022-08-11T07:32:42.537Z,22.99
2022-08-11T07:34:07.617Z,23.09
2022-08-11T07:34:42.530Z,23.21
2022-08-11T07:35:42.527Z,23.15
2022-08-11T07:36:42.521Z,23.34
2022-08-11T07:37:42.517Z,23.25
2022-08-11T07:38:42.511Z,23.16
2022-08-11T07:39:42.596Z,23.29
2022-08-11T07:40:42.502Z,23.18
2022-08-11T07:41:42.501Z,23.22
2022-08-11T07:42:42.499Z,23.31
2022-08-11T07:43:42.493Z,23.31
2022-08-11T07:44:42.487Z,23.35
2022-08-11T07:45:42.484Z,23.32
2022-08-11T07:46:42.478Z,23.35
2022-08-11T07:47:42.476Z,23.39
2022-08-11T07:48:42.470Z,23.47
2022-08-11T07:49:42.470Z,23.45
2022-08-11T07:50:42.461Z,23.49
2022-08-11T07:51:42.463Z,23.60
2022-08-11T07:52:42.453Z,23.57
2022-08-11T07:53:42.459Z,23.63
2022-08-11T07:54:42.445Z,23.75
2022-08-11T07:55:51.099Z,23.84
2022-08-11T07:56:55.267Z,23.94
2022-08-11T07:58:05.554Z,24.06
2022-08-11T07:58:45.580Z,24.09
2022-08-11T08:00:03.285Z,24.04
2022-08-11T08:00:42.424Z,24.12
2022-08-11T08:01:42.494Z,24.16
2022-08-11T08:02:42.414Z,24.16
2022-08-11T08:03:54.019Z,24.11
2022-08-11T08:04:46.864Z,24.12
2022-08-11T08:05:42.415Z,24.12
2022-08-11T08:06:42.400Z,24.24
2022-08-11T08:07:42.400Z,24.21
2022-08-11T08:08:42.392Z,24.31
2022-08-11T08:09:42.390Z,24.41
2022-08-11T08:10:42.386Z,24.37
2022-08-11T08:11:42.384Z,24.39
2022-08-11T08:12:42.477Z,24.49
2022-08-11T08:13:42.377Z,24.48
2022-08-11T08:14:42.371Z,24.59
2022-08-11T08:15:42.369Z,24.60
2022-08-11T08:16:42.364Z,24.71
2022-08-11T08:17:42.365Z,24.67
2022-08-11T08:18:42.358Z,24.68
2022-08-11T08:19:42.357Z,24.71
2022-08-11T08:20:42.350Z,24.75
2022-08-11T08:21:45.399Z,24.79
2022-08-11T08:22:47.886Z,24.80
2022-08-11T08:23:42.347Z,24.84
2022-08-11T08:24:42.337Z,24.77
2022-08-11T08:25:42.345Z,24.80
2022-08-11T08:26:42.335Z,24.90
2022-08-11T08:27:42.331Z,24.87
2022-08-11T08:28:42.327Z,24.84
2022-08-11T08:29:42.325Z,24.80
2022-08-11T08:30:42.319Z,24.77
2022-08-11T08:31:42.319Z,24.77
2022-08-11T08:32:42.412Z,24.77
2022-08-11T08:33:42.319Z,24.74
2022-08-11T08:34:42.307Z,24.83
2022-08-11T08:35:54.377Z,24.68
2022-08-11T08:36:42.302Z,24.80
2022-08-11T08:37:46.118Z,24.97
2022-08-11T08:38:42.350Z,25.07
2022-08-11T08:39:42.391Z,24.99
2022-08-11T08:40:42.290Z,25.11
2022-08-11T08:41:42.303Z,25.12
2022-08-11T08:42:45.239Z,25.16
2022-08-11T08:43:48.814Z,25.11
2022-08-11T08:44:44.929Z,25.09
2022-08-11T08:45:42.277Z,25.23
2022-08-11T08:46:42.273Z,25.22
2022-08-11T08:47:43.502Z,25.12
2022-08-11T08:48:42.271Z,25.20
2022-08-11T08:49:42.266Z,25.30
2022-08-11T08:50:42.261Z,25.36
2022-08-11T08:51:57.883Z,25.54
2022-08-11T08:52:43.954Z,25.57
2022-08-11T08:53:52.676Z,25.49
2022-08-11T08:54:42.259Z,25.63
2022-08-11T08:55:45.430Z,25.56
2022-08-11T08:56:42.246Z,25.49
2022-08-11T08:57:42.419Z,25.59
2022-08-11T08:58:42.241Z,25.63
2022-08-11T08:59:49.264Z,25.63
2022-08-11T09:01:42.339Z,25.71
2022-08-11T09:02:42.232Z,25.64
2022-08-11T09:04:05.030Z,25.64
2022-08-11T09:04:42.278Z,25.71
2022-08-11T09:05:42.224Z,25.67
2022-08-11T09:06:42.222Z,25.76
2022-08-11T09:07:42.581Z,25.69
2022-08-11T09:08:42.216Z,25.75
2022-08-11T09:09:42.213Z,25.59
2022-08-11T09:10:42.212Z,25.64
2022-08-11T09:11:42.209Z,25.72
2022-08-11T09:12:42.232Z,25.69
2022-08-11T09:13:42.206Z,25.69
2022-08-11T09:14:42.202Z,25.81
2022-08-11T09:15:42.198Z,25.91
2022-08-11T09:16:42.199Z,25.91
2022-08-11T09:17:42.198Z,26.03
2022-08-11T09:18:42.194Z,26.01
2022-08-11T09:19:42.193Z,26.00
2022-08-11T09:20:42.190Z,26.01
2022-08-11T09:21:48.754Z,26.04
2022-08-11T09:22:42.188Z,25.96
2022-08-11T09:24:08.875Z,26.06
2022-08-11T09:24:42.181Z,26.13
2022-08-11T09:25:42.176Z,26.16
2022-08-11T09:26:42.176Z,26.16
2022-08-11T09:27:50.435Z,26.03
2022-08-11T09:28:42.173Z,26.03
2022-08-11T09:29:42.169Z,26.03
2022-08-11T09:30:42.173Z,26.01
2022-08-11T09:31:42.163Z,26.08
2022-08-11T09:32:42.163Z,26.08
2022-08-11T09:33:42.941Z,26.19
2022-08-11T09:34:42.159Z,26.17
2022-08-11T09:35:42.155Z,26.12
2022-08-11T09:36:42.155Z,26.17
2022-08-11T09:37:54.132Z,26.04
2022-08-11T09:38:46.123Z,26.20
2022-08-11T09:39:42.612Z,26.28
2022-08-11T09:40:42.147Z,26.36
2022-08-11T09:42:00.780Z,26.50
2022-08-11T09:42:42.143Z,26.51
2022-08-11T09:43:42.138Z,26.49
2022-08-11T09:44:42.139Z,26.50
2022-08-11T09:45:42.135Z,26.57
2022-08-11T09:46:42.140Z,26.56
2022-08-11T09:47:42.131Z,26.68
2022-08-11T09:48:42.135Z,26.61
2022-08-11T09:49:42.132Z,26.64
2022-08-11T09:50:42.125Z,26.60
2022-08-11T09:51:42.126Z,26.68
2022-08-11T09:52:57.209Z,26.69
2022-08-11T09:53:42.123Z,26.75
2022-08-11T09:54:42.117Z,26.79
2022-08-11T09:55:42.118Z,26.76
2022-08-11T09:56:42.114Z,26.60
2022-08-11T09:57:42.115Z,26.72
2022-08-11T09:58:43.582Z,26.79
2022-08-11T09:59:42.111Z,26.88
2022-08-11T10:00:42.107Z,26.97
2022-08-11T10:01:42.241Z,26.96
2022-08-11T10:02:42.203Z,26.96
2022-08-11T10:03:42.104Z,26.87
2022-08-11T10:04:42.101Z,26.84
2022-08-11T10:05:42.102Z,26.83
2022-08-11T10:06:42.098Z,26.73
2022-08-11T10:07:42.098Z,26.84
2022-08-11T10:08:42.143Z,26.78
2022-08-11T10:09:42.104Z,26.94
2022-08-11T10:10:42.090Z,27.08
2022-08-11T10:11:42.089Z,27.03
2022-08-11T10:12:42.087Z,27.05
2022-08-11T10:14:31.497Z,27.02
2022-08-11T10:14:44.669Z,27.18
2022-08-11T10:16:03.600Z,27.16
2022-08-11T10:16:42.082Z,27.18
2022-08-11T10:17:42.083Z,27.23
2022-08-11T10:18:42.078Z,27.24
2022-08-11T10:19:42.078Z,27.39
2022-08-11T10:20:42.076Z,27.40
2022-08-11T10:21:42.141Z,27.61
2022-08-11T10:22:42.072Z,27.61
2022-08-11T10:24:01.287Z,27.62
2022-08-11T10:24:42.069Z,27.59
2022-08-11T10:25:42.085Z,27.53
2022-08-11T10:26:42.066Z,27.59
2022-08-11T10:28:16.915Z,27.53
2022-08-11T10:28:55.950Z,27.65
2022-08-11T10:29:44.463Z,27.74
2022-08-11T10:30:42.397Z,27.71
2022-08-11T10:31:56.917Z,27.63
2022-08-11T10:32:57.223Z,27.72
2022-08-11T10:33:59.162Z,27.78
2022-08-11T10:34:42.059Z,27.78
2022-08-11T10:35:42.058Z,27.86
2022-08-11T10:36:42.055Z,27.96
2022-08-11T10:38:07.700Z,27.93
2022-08-11T10:38:42.053Z,27.98
2022-08-11T10:39:42.094Z,27.90
2022-08-11T10:40:42.059Z,28.01
2022-08-11T10:42:06.639Z,27.88
2022-08-11T10:42:57.514Z,28.01
2022-08-11T10:44:02.435Z,28.01
2022-08-11T10:44:42.048Z,27.95
2022-08-11T10:45:42.049Z,28.02
2022-08-11T10:46:42.046Z,28.05
2022-08-11T10:47:46.755Z,28.06
2022-08-11T10:48:42.046Z,27.99
2022-08-11T10:49:42.045Z,27.95
2022-08-11T10:50:42.041Z,27.93
2022-08-11T10:51:51.240Z,28.01
2022-08-11T10:52:42.042Z,28.11
2022-08-11T10:53:42.042Z,28.20
2022-08-11T10:54:42.038Z,28.20
2022-08-11T10:55:42.040Z,28.21
2022-08-11T10:56:42.038Z,28.30
2022-08-11T10:57:42.115Z,28.33
2022-08-11T10:58:42.035Z,28.43
2022-08-11T10:59:42.036Z,28.39
2022-08-11T11:00:42.034Z,28.46
2022-08-11T11:01:42.111Z,28.24
2022-08-11T11:02:42.032Z,28.30
2022-08-11T11:03:42.032Z,28.25
2022-08-11T11:04:42.033Z,28.17
2022-08-11T11:06:12.829Z,28.27
2022-08-11T11:06:42.030Z,28.30
2022-08-11T11:07:44.380Z,28.45
2022-08-11T11:08:42.066Z,28.52
2022-08-11T11:09:42.031Z,28.55
2022-08-11T11:10:42.033Z,28.42
2022-08-11T11:11:42.035Z,28.30
2022-08-11T11:12:42.038Z,28.43
2022-08-11T11:13:42.028Z,28.33
2022-08-11T11:14:46.726Z,28.32
2022-08-11T11:15:42.027Z,28.33
2022-08-11T11:16:42.024Z,28.23
2022-08-11T11:17:42.025Z,28.28
2022-08-11T11:18:42.023Z,28.23
2022-08-11T11:19:42.031Z,28.32
2022-08-11T11:20:47.078Z,28.28
2022-08-11T11:21:42.329Z,28.43
2022-08-11T11:22:42.019Z,28.46
2022-08-11T11:23:42.021Z,28.48
2022-08-11T11:24:42.082Z,28.36
2022-08-11T11:25:42.021Z,28.40
2022-08-11T11:26:42.017Z,28.33
2022-08-11T11:27:46.730Z,28.39
2022-08-11T11:28:42.017Z,28.33
2022-08-11T11:29:42.018Z,28.45
2022-08-11T11:30:42.016Z,28.39
2022-08-11T11:31:42.017Z,28.48
2022-08-11T11:32:44.387Z,28.58
2022-08-11T11:34:06.969Z,28.48
2022-08-11T11:34:52.850Z,28.60
2022-08-11T11:35:42.018Z,28.58
2022-08-11T11:36:42.013Z,28.70
2022-08-11T11:37:42.014Z,28.74
2022-08-11T11:38:42.011Z,28.73
2022-08-11T11:39:42.054Z,28.69
2022-08-11T11:40:42.010Z,28.64
2022-08-11T11:41:42.012Z,28.69
2022-08-11T11:42:42.010Z,28.77
2022-08-11T11:43:42.013Z,28.77
2022-08-11T11:44:42.011Z,28.69
2022-08-11T11:45:42.011Z,28.57
2022-08-11T11:46:42.009Z,28.70
2022-08-11T11:47:42.009Z,28.73
2022-08-11T11:48:42.007Z,28.74
2022-08-11T11:49:42.016Z,28.82
2022-08-11T11:50:42.004Z,28.91
2022-08-11T11:51:42.007Z,28.98
2022-08-11T11:52:42.007Z,28.95
2022-08-11T11:53:42.006Z,28.95
2022-08-11T11:54:42.003Z,28.95
2022-08-11T11:55:42.006Z,29.00
2022-08-11T11:56:42.006Z,29.03
2022-08-11T11:57:42.142Z,29.07
2022-08-11T11:58:42.003Z,29.03
2022-08-11T11:59:42.008Z,29.08
2022-08-11T12:00:43.536Z,29.08
2022-08-11T12:01:42.005Z,29.14
2022-08-11T12:02:42.001Z,29.12
2022-08-11T12:03:42.117Z,29.07
2022-08-11T12:04:42.008Z,29.11
2022-08-11T12:05:42.006Z,29.12
2022-08-11T12:06:42.003Z,29.14
2022-08-11T12:07:42.003Z,29.08
2022-08-11T12:08:42.003Z,29.03
2022-08-11T12:09:42.004Z,28.97
2022-08-11T12:10:42.001Z,29.08
2022-08-11T12:11:43.505Z,29.02
2022-08-11T12:12:42.003Z,29.25
2022-08-11T12:13:42.005Z,29.32
2022-08-11T12:14:42.002Z,29.51
2022-08-11T12:16:34.558Z,29.54
2022-08-11T12:16:41.999Z,29.58
2022-08-11T12:17:42.058Z,29.69
2022-08-11T12:18:42.000Z,29.73
2022-08-11T12:19:48.303Z,29.70
2022-08-11T12:20:42.000Z,29.66
2022-08-11T12:21:42.009Z,29.73
2022-08-11T12:22:42.002Z,29.67
2022-08-11T12:23:42.004Z,29.70
2022-08-11T12:24:42.000Z,29.44
2022-08-11T12:25:42.005Z,29.35
2022-08-11T12:26:42.003Z,29.21
2022-08-11T12:27:42.143Z,29.35
2022-08-11T12:28:42.004Z,29.37
2022-08-11T12:29:43.984Z,29.39
2022-08-11T12:31:42.011Z,29.44
2022-08-11T12:32:42.035Z,29.58
2022-08-11T12:33:42.005Z,29.60
2022-08-11T12:34:42.008Z,29.70
2022-08-11T12:35:42.005Z,29.74
2022-08-11T12:36:42.003Z,29.74
2022-08-11T12:37:42.179Z,29.78
2022-08-11T12:38:42.005Z,29.70
2022-08-11T12:40:16.552Z,29.73
2022-08-11T12:41:12.121Z,29.69
2022-08-11T12:41:42.074Z,29.73
2022-08-11T12:42:42.004Z,29.69
2022-08-11T12:43:42.008Z,29.79
2022-08-11T12:44:42.008Z,29.88
2022-08-11T12:45:42.007Z,29.88
2022-08-11T12:46:42.009Z,29.84
2022-08-11T12:47:42.008Z,30.01
2022-08-11T12:49:00.750Z,29.91
2022-08-11T12:49:45.565Z,29.82
2022-08-11T12:50:42.007Z,29.84
2022-08-11T12:52:12.897Z,29.74
2022-08-11T12:52:42.009Z,29.78
2022-08-11T12:53:42.024Z,29.82
2022-08-11T12:54:42.015Z,29.84